createdAt,value
2019-03-01T00:01:23.762Z,11.47
2019-03-01T00:04:02.812Z,9.50
2019-03-01T00:06:47.875Z,13.77
2019-03-01T00:09:29.810Z,13.73
2019-03-01T00:12:28.465Z,12.80
2019-03-01T00:15:34.986Z,12.87
2019-03-01T00:18:25.497Z,8.90
2019-03-01T00:21:21.165Z,8.73
2019-03-01T00:23:59.860Z,13.00
2019-03-01T00:26:38.795Z,8.20
2019-03-01T00:29:35.469Z,12.23
2019-03-01T00:32:11.256Z,8.83
2019-03-01T00:34:56.000Z,15.53
2019-03-01T00:37:37.735Z,11.67
2019-03-01T00:40:22.087Z,13.67
2019-03-01T00:43:07.265Z,11.20
2019-03-01T00:45:37.160Z,7.67
2019-03-01T00:48:07.079Z,9.37
2019-03-01T00:50:37.678Z,10.47
2019-03-01T00:53:09.149Z,12.23
2019-03-01T00:55:39.376Z,14.33
2019-03-01T00:58:09.316Z,8.73
2019-03-01T01:00:45.331Z,15.30
2019-03-01T01:03:15.203Z,12.83
2019-03-01T01:05:45.054Z,11.60
2019-03-01T01:08:14.984Z,8.43
2019-03-01T01:10:44.933Z,12.40
2019-03-01T01:13:14.945Z,10.40
2019-03-01T01:15:44.889Z,11.23
2019-03-01T01:18:14.838Z,7.70
2019-03-01T01:20:44.841Z,12.03
2019-03-01T01:23:14.713Z,10.07
2019-03-01T01:25:45.794Z,10.33
2019-03-01T01:28:15.644Z,14.07
2019-03-01T01:30:45.507Z,9.37
2019-03-01T01:33:15.372Z,11.67
2019-03-01T01:35:45.260Z,9.57
2019-03-01T01:38:15.198Z,9.00
2019-03-01T01:40:47.246Z,8.10
2019-03-01T01:43:17.216Z,10.20
2019-03-01T01:45:47.100Z,10.33
2019-03-01T01:48:17.044Z,9.93
2019-03-01T01:50:46.927Z,11.07
2019-03-01T01:53:17.815Z,9.80
2019-03-01T01:55:47.707Z,12.60
2019-03-01T01:58:17.623Z,9.37
2019-03-01T02:00:47.483Z,7.10
2019-03-01T02:03:17.343Z,9.33
2019-03-01T02:05:47.272Z,5.90
2019-03-01T02:08:17.191Z,9.97
2019-03-01T02:10:47.194Z,11.93
2019-03-01T02:13:17.043Z,9.63
2019-03-01T02:15:46.988Z,7.87
2019-03-01T02:18:16.936Z,11.40
2019-03-01T02:20:46.860Z,12.47
2019-03-01T02:23:16.812Z,8.27
2019-03-01T02:25:46.720Z,6.77
2019-03-01T02:28:16.593Z,11.43
2019-03-01T02:30:58.336Z,7.73
2019-03-01T02:33:28.342Z,8.47
2019-03-01T02:36:01.155Z,10.50
2019-03-01T02:38:30.773Z,9.27
2019-03-01T02:41:00.741Z,9.33
2019-03-01T02:43:30.696Z,5.67
2019-03-01T02:46:00.628Z,8.97
2019-03-01T02:48:30.577Z,5.90
2019-03-01T02:51:00.493Z,6.40
2019-03-01T02:53:30.348Z,6.23
2019-03-01T02:56:00.229Z,6.93
2019-03-01T02:58:30.138Z,5.03
2019-03-01T03:01:00.030Z,4.73
2019-03-01T03:03:30.057Z,6.17
2019-03-01T03:06:01.639Z,3.80
2019-03-01T03:08:31.550Z,3.63
2019-03-01T03:11:01.421Z,4.80
2019-03-01T03:13:31.268Z,4.13
2019-03-01T03:16:01.267Z,7.07
2019-03-01T03:18:31.188Z,4.10
2019-03-01T03:21:01.121Z,6.33
2019-03-01T03:23:31.065Z,3.67
2019-03-01T03:26:00.997Z,6.97
2019-03-01T03:28:30.967Z,4.60
2019-03-01T03:31:00.851Z,5.10
2019-03-01T03:33:30.762Z,5.03
2019-03-01T03:36:00.695Z,4.47
2019-03-01T03:38:30.646Z,4.33
2019-03-01T03:41:00.563Z,5.73
2019-03-01T03:43:30.477Z,2.97
2019-03-01T03:46:00.323Z,2.83
2019-03-01T03:48:30.271Z,6.30
2019-03-01T03:51:00.265Z,6.27
2019-03-01T03:53:30.218Z,3.53
2019-03-01T03:56:00.366Z,4.53
2019-03-01T03:58:30.490Z,3.37
2019-03-01T04:01:00.481Z,3.43
2019-03-01T04:03:30.493Z,2.80
2019-03-01T04:06:00.737Z,4.13
2019-03-01T04:08:30.908Z,5.77
2019-03-01T04:11:00.803Z,4.70
2019-03-01T04:13:30.720Z,6.47
2019-03-01T04:16:00.717Z,3.97
2019-03-01T04:18:30.713Z,2.93
2019-03-01T04:21:00.632Z,5.37
2019-03-01T04:23:30.488Z,3.47
2019-03-01T04:26:00.502Z,4.80
2019-03-01T04:28:30.422Z,2.67
2019-03-01T04:31:01.938Z,3.23
2019-03-01T04:33:31.856Z,5.37
2019-03-01T04:36:01.790Z,4.23
2019-03-01T04:38:31.623Z,5.23
2019-03-01T04:41:01.496Z,4.43
2019-03-01T04:43:31.434Z,5.63
2019-03-01T04:46:01.277Z,3.37
2019-03-01T04:48:31.216Z,3.43
2019-03-01T04:51:01.128Z,4.03
2019-03-01T04:53:30.988Z,3.27
2019-03-01T04:56:00.861Z,3.57
2019-03-01T04:58:30.715Z,4.00
2019-03-01T05:01:01.577Z,4.50
2019-03-01T05:03:31.528Z,4.27
2019-03-01T05:06:01.527Z,3.63
2019-03-01T05:08:31.416Z,4.00
2019-03-01T05:11:01.333Z,3.20
2019-03-01T05:13:31.264Z,5.37
2019-03-01T05:16:01.215Z,2.80
2019-03-01T05:18:31.146Z,3.20
2019-03-01T05:21:01.005Z,3.10
2019-03-01T05:23:30.953Z,3.60
2019-03-01T05:26:00.867Z,4.20
2019-03-01T05:28:30.796Z,4.97
2019-03-01T05:31:00.650Z,4.43
2019-03-01T05:33:30.624Z,4.23
2019-03-01T05:36:00.484Z,4.63
2019-03-01T05:38:30.348Z,4.77
2019-03-01T05:41:00.197Z,5.07
2019-03-01T05:43:30.152Z,4.67
2019-03-01T05:46:00.084Z,6.17
2019-03-01T05:48:30.006Z,4.70
2019-03-01T05:50:59.887Z,5.17
2019-03-01T05:53:29.803Z,5.50
2019-03-01T05:55:59.673Z,5.70
2019-03-01T05:58:30.961Z,7.30
2019-03-01T06:01:12.532Z,7.43
2019-03-01T06:03:57.237Z,5.83
2019-03-01T06:06:35.758Z,7.23
2019-03-01T06:09:23.999Z,5.77
2019-03-01T06:12:19.660Z,5.37
2019-03-01T06:14:58.454Z,5.73
2019-03-01T06:17:40.206Z,5.27
2019-03-01T06:20:31.106Z,4.43
2019-03-01T06:23:15.983Z,4.00
2019-03-01T06:26:05.536Z,6.43
2019-03-01T06:29:11.988Z,6.77
2019-03-01T06:31:50.403Z,3.70
2019-03-01T06:34:31.731Z,5.77
2019-03-01T06:37:33.404Z,4.27
2019-03-01T06:40:26.278Z,3.67
2019-03-01T06:43:11.250Z,3.77
2019-03-01T06:46:00.644Z,3.30
2019-03-01T06:48:35.102Z,4.37
2019-03-01T06:51:09.605Z,4.30
2019-03-01T06:53:39.542Z,4.77
2019-03-01T06:56:10.444Z,5.43
2019-03-01T06:58:40.360Z,5.33
2019-03-01T07:01:11.257Z,6.47
2019-03-01T07:03:41.222Z,4.63
2019-03-01T07:06:11.115Z,4.37
2019-03-01T07:08:41.059Z,5.77
2019-03-01T07:11:11.036Z,6.30
2019-03-01T07:13:40.972Z,6.80
2019-03-01T07:16:10.910Z,4.40
2019-03-01T07:18:40.765Z,5.67
2019-03-01T07:21:10.641Z,6.43
2019-03-01T07:23:40.575Z,9.27
2019-03-01T07:26:10.519Z,7.93
2019-03-01T07:28:41.537Z,6.60
2019-03-01T07:31:11.471Z,5.93
2019-03-01T07:33:41.399Z,5.70
2019-03-01T07:36:11.336Z,6.57
2019-03-01T07:38:41.293Z,5.57
2019-03-01T07:41:11.375Z,6.10
2019-03-01T07:43:41.271Z,8.00
2019-03-01T07:46:11.217Z,5.23
2019-03-01T07:48:41.160Z,4.23
2019-03-01T07:51:11.053Z,7.43
2019-03-01T07:53:42.078Z,4.97
2019-03-01T07:56:12.329Z,4.43
2019-03-01T07:58:42.256Z,5.13
2019-03-01T08:01:12.221Z,6.43
2019-03-01T08:03:42.065Z,4.67
2019-03-01T08:06:13.536Z,5.63
2019-03-01T08:08:43.489Z,5.23
2019-03-01T08:11:13.405Z,3.90
2019-03-01T08:13:43.395Z,6.00
2019-03-01T08:16:16.633Z,5.07
2019-03-01T08:18:45.274Z,5.17
2019-03-01T08:21:15.199Z,4.90
2019-03-01T08:23:45.159Z,3.87
2019-03-01T08:26:15.031Z,4.93
2019-03-01T08:28:44.968Z,4.67
2019-03-01T08:31:17.573Z,4.70
2019-03-01T08:33:46.380Z,4.90
2019-03-01T08:36:16.234Z,4.37
2019-03-01T08:38:46.125Z,3.93
2019-03-01T08:41:16.038Z,4.17
2019-03-01T08:43:48.098Z,3.50
2019-03-01T08:46:17.468Z,3.43
2019-03-01T08:48:47.405Z,4.07
2019-03-01T08:51:17.517Z,5.17
2019-03-01T08:53:48.346Z,4.07
2019-03-01T08:56:25.871Z,4.83
2019-03-01T08:58:50.724Z,3.33
2019-03-01T09:01:25.331Z,3.23
2019-03-01T09:03:58.435Z,5.10
2019-03-01T09:06:28.396Z,5.13
2019-03-01T09:08:58.425Z,3.60
2019-03-01T09:11:30.513Z,3.47
2019-03-01T09:14:00.020Z,4.20
2019-03-01T09:16:29.953Z,4.20
2019-03-01T09:19:00.877Z,3.33
2019-03-01T09:21:31.995Z,5.10
2019-03-01T09:24:01.984Z,3.00
2019-03-01T09:26:31.841Z,2.90
2019-03-01T09:29:01.779Z,2.87
2019-03-01T09:31:31.698Z,5.43
2019-03-01T09:34:01.640Z,2.50
2019-03-01T09:36:33.320Z,2.63
2019-03-01T09:39:05.244Z,3.80
2019-03-01T09:41:40.064Z,2.90
2019-03-01T09:44:08.039Z,3.63
2019-03-01T09:46:37.936Z,2.50
2019-03-01T09:49:07.994Z,2.33
2019-03-01T09:51:38.094Z,3.40
2019-03-01T09:54:09.356Z,2.87
2019-03-01T09:56:39.630Z,3.43
2019-03-01T09:59:09.485Z,3.67
2019-03-01T10:01:39.478Z,3.30
2019-03-01T10:04:09.341Z,3.83
2019-03-01T10:06:39.200Z,2.60
2019-03-01T10:09:11.086Z,3.30
2019-03-01T10:11:40.935Z,4.20
2019-03-01T10:14:10.894Z,5.30
2019-03-01T10:16:40.830Z,4.43
2019-03-01T10:19:10.700Z,3.83
2019-03-01T10:21:40.623Z,3.47
2019-03-01T10:24:11.573Z,4.07
2019-03-01T10:26:41.516Z,3.00
2019-03-01T10:29:11.470Z,2.93
2019-03-01T10:31:41.449Z,5.97
2019-03-01T10:34:11.571Z,3.77
2019-03-01T10:36:41.507Z,3.03
2019-03-01T10:39:13.524Z,3.40
2019-03-01T10:41:44.892Z,3.40
2019-03-01T10:44:14.773Z,3.27
2019-03-01T10:46:44.822Z,2.70
2019-03-01T10:49:14.716Z,3.73
2019-03-01T10:51:44.635Z,4.03
2019-03-01T10:54:14.487Z,3.13
2019-03-01T10:56:44.458Z,3.40
2019-03-01T10:59:14.388Z,3.53
2019-03-01T11:01:44.277Z,4.50
2019-03-01T11:04:14.231Z,5.03
2019-03-01T11:06:44.172Z,4.23
2019-03-01T11:09:14.108Z,3.30
2019-03-01T11:11:44.135Z,4.23
2019-03-01T11:14:14.060Z,5.47
2019-03-01T11:16:44.976Z,5.07
2019-03-01T11:19:14.836Z,3.67
2019-03-01T11:21:44.833Z,4.03
2019-03-01T11:24:14.687Z,4.87
2019-03-01T11:26:44.537Z,4.17
2019-03-01T11:29:14.411Z,4.13
2019-03-01T11:31:44.341Z,4.00
2019-03-01T11:34:15.403Z,4.70
2019-03-01T11:36:45.268Z,5.63
2019-03-01T11:39:16.977Z,6.23
2019-03-01T11:41:46.850Z,4.70
2019-03-01T11:44:16.769Z,3.70
2019-03-01T11:46:46.632Z,3.70
2019-03-01T11:49:16.546Z,2.50
2019-03-01T11:51:46.412Z,3.03
2019-03-01T11:54:17.510Z,2.60
2019-03-01T11:56:47.453Z,3.63
2019-03-01T11:59:17.431Z,2.93
2019-03-01T12:01:48.192Z,2.40
2019-03-01T12:04:18.178Z,2.97
2019-03-01T12:06:48.121Z,2.23
2019-03-01T12:09:18.103Z,3.20
2019-03-01T12:11:47.967Z,2.67
2019-03-01T12:14:17.833Z,2.40
2019-03-01T12:16:47.829Z,2.70
2019-03-01T12:19:17.743Z,2.40
2019-03-01T12:21:47.621Z,2.67
2019-03-01T12:24:17.614Z,3.70
2019-03-01T12:26:47.550Z,2.43
2019-03-01T12:29:17.473Z,2.90
2019-03-01T12:31:47.359Z,2.57
2019-03-01T12:34:17.207Z,3.20
2019-03-01T12:36:47.169Z,2.57
2019-03-01T12:39:17.102Z,4.70
2019-03-01T12:41:47.064Z,2.90
2019-03-01T12:44:16.895Z,3.13
2019-03-01T12:46:46.773Z,2.60
2019-03-01T12:49:16.624Z,4.67
2019-03-01T12:51:46.585Z,3.13
2019-03-01T12:54:16.446Z,3.40
2019-03-01T12:56:46.308Z,7.93
2019-03-01T12:59:16.172Z,4.03
2019-03-01T13:01:46.013Z,3.33
2019-03-01T13:04:18.686Z,3.27
2019-03-01T13:06:47.433Z,3.57
2019-03-01T13:09:17.327Z,3.27
2019-03-01T13:11:48.552Z,2.93
2019-03-01T13:14:18.869Z,3.47
2019-03-01T13:16:48.786Z,3.97
2019-03-01T13:19:18.648Z,2.97
2019-03-01T13:21:49.214Z,3.37
2019-03-01T13:24:19.232Z,3.47
2019-03-01T13:26:49.079Z,4.50
2019-03-01T13:29:19.107Z,3.07
2019-03-01T13:31:50.493Z,2.93
2019-03-01T13:34:20.360Z,3.50
2019-03-01T13:36:50.220Z,3.87
2019-03-01T13:39:20.776Z,5.70
2019-03-01T13:41:50.857Z,3.57
2019-03-01T13:44:20.762Z,4.70
2019-03-01T13:46:50.669Z,3.77
2019-03-01T13:49:20.593Z,3.13
2019-03-01T13:51:52.855Z,3.43
2019-03-01T13:54:22.083Z,5.77
2019-03-01T13:56:52.025Z,3.43
2019-03-01T13:59:21.962Z,3.80
2019-03-01T14:01:51.982Z,3.47
2019-03-01T14:04:21.906Z,3.60
2019-03-01T14:06:51.846Z,4.07
2019-03-01T14:09:23.387Z,3.83
2019-03-01T14:11:55.825Z,3.80
2019-03-01T14:14:27.057Z,3.90
2019-03-01T14:16:56.613Z,4.10
2019-03-01T14:19:26.455Z,3.67
2019-03-01T14:21:56.325Z,4.07
2019-03-01T14:24:29.576Z,4.07
2019-03-01T14:26:59.170Z,3.77
2019-03-01T14:29:29.226Z,3.90
2019-03-01T14:31:59.188Z,4.43
2019-03-01T14:34:29.149Z,4.30
2019-03-01T14:36:59.157Z,4.20
2019-03-01T14:39:29.013Z,4.10
2019-03-01T14:41:59.019Z,4.40
2019-03-01T14:44:30.705Z,4.30
2019-03-01T14:47:01.136Z,4.17
2019-03-01T14:49:31.096Z,4.30
2019-03-01T14:52:01.476Z,4.77
2019-03-01T14:54:32.213Z,4.87
2019-03-01T14:57:06.850Z,5.00
2019-03-01T14:59:42.649Z,5.30
2019-03-01T15:02:30.910Z,5.23
2019-03-01T15:05:05.253Z,5.63
2019-03-01T15:07:34.052Z,4.57
2019-03-01T15:10:06.981Z,5.10
2019-03-01T15:12:39.412Z,5.33
2019-03-01T15:15:11.824Z,4.57
2019-03-01T15:17:43.931Z,5.00
2019-03-01T15:20:22.258Z,4.60
2019-03-01T15:22:48.801Z,5.17
2019-03-01T15:25:19.609Z,5.50
2019-03-01T15:27:49.720Z,7.00
2019-03-01T15:30:19.579Z,5.20
2019-03-01T15:32:49.464Z,5.60
2019-03-01T15:35:19.391Z,6.40
2019-03-01T15:37:49.327Z,4.80
2019-03-01T15:40:19.170Z,5.07
2019-03-01T15:42:51.548Z,5.43
2019-03-01T15:45:20.579Z,5.90
2019-03-01T15:47:50.589Z,6.83
2019-03-01T15:50:23.687Z,6.43
2019-03-01T15:52:52.301Z,8.17
2019-03-01T15:55:23.289Z,5.27
2019-03-01T15:57:56.455Z,6.27
2019-03-01T16:00:25.681Z,7.20
2019-03-01T16:02:56.625Z,5.10
2019-03-01T16:05:26.915Z,5.60
2019-03-01T16:07:56.777Z,6.47
2019-03-01T16:10:26.695Z,6.30
2019-03-01T16:12:56.547Z,8.43
2019-03-01T16:15:26.563Z,5.63
2019-03-01T16:17:57.595Z,6.90
2019-03-01T16:20:29.277Z,7.13
2019-03-01T16:22:59.229Z,6.97
2019-03-01T16:25:29.087Z,6.43
2019-03-01T16:27:59.003Z,6.90
2019-03-01T16:30:29.003Z,7.53
2019-03-01T16:32:58.849Z,6.90
2019-03-01T16:35:28.707Z,6.40
2019-03-01T16:38:02.736Z,8.00
2019-03-01T16:40:32.606Z,7.63
2019-03-01T16:43:02.517Z,7.47
2019-03-01T16:45:32.435Z,9.63
2019-03-01T16:48:02.466Z,7.90
2019-03-01T16:50:32.389Z,8.77
2019-03-01T16:53:04.585Z,8.67
2019-03-01T16:55:34.858Z,8.60
2019-03-01T16:58:07.093Z,7.90
2019-03-01T17:00:36.470Z,7.67
2019-03-01T17:03:08.944Z,9.13
2019-03-01T17:05:39.625Z,8.90
2019-03-01T17:08:10.401Z,8.50
2019-03-01T17:10:40.244Z,8.33
2019-03-01T17:13:10.089Z,8.77
2019-03-01T17:15:40.097Z,12.17
2019-03-01T17:18:12.308Z,9.17
2019-03-01T17:20:41.559Z,9.97
2019-03-01T17:23:11.497Z,9.13
2019-03-01T17:25:41.439Z,9.93
2019-03-01T17:28:11.275Z,9.40
2019-03-01T17:30:41.247Z,9.67
2019-03-01T17:33:12.834Z,10.07
2019-03-01T17:35:42.653Z,9.87
2019-03-01T17:38:12.588Z,10.00
2019-03-01T17:40:42.435Z,9.87
2019-03-01T17:43:12.282Z,10.00
2019-03-01T17:45:42.148Z,9.70
2019-03-01T17:48:12.070Z,10.80
2019-03-01T17:50:44.855Z,8.77
2019-03-01T17:53:13.532Z,10.87
2019-03-01T17:55:43.398Z,8.90
2019-03-01T17:58:13.250Z,10.20
2019-03-01T18:00:44.593Z,9.03
2019-03-01T18:03:14.541Z,9.40
2019-03-01T18:05:44.439Z,10.27
2019-03-01T18:08:14.295Z,11.13
2019-03-01T18:10:44.146Z,9.80
2019-03-01T18:13:15.050Z,9.03
2019-03-01T18:15:48.728Z,8.93
2019-03-01T18:18:16.639Z,9.30
2019-03-01T18:20:46.547Z,8.47
2019-03-01T18:23:16.413Z,9.00
2019-03-01T18:25:46.345Z,8.47
2019-03-01T18:28:16.279Z,9.63
2019-03-01T18:30:46.207Z,8.83
2019-03-01T18:33:16.862Z,10.17
2019-03-01T18:35:48.954Z,10.57
2019-03-01T18:38:18.911Z,11.90
2019-03-01T18:40:51.747Z,11.10
2019-03-01T18:43:20.421Z,12.03
2019-03-01T18:45:50.340Z,12.50
2019-03-01T18:48:20.290Z,12.87
2019-03-01T18:50:50.200Z,14.30
2019-03-01T18:53:20.080Z,14.03
2019-03-01T18:55:52.883Z,14.10
2019-03-01T18:58:21.741Z,16.07
2019-03-01T19:00:53.421Z,18.10
2019-03-01T19:03:23.284Z,16.67
2019-03-01T19:05:53.225Z,15.10
2019-03-01T19:08:23.235Z,16.93
2019-03-01T19:10:54.464Z,17.60
2019-03-01T19:13:25.700Z,17.90
2019-03-01T19:15:55.782Z,15.73
2019-03-01T19:18:25.726Z,20.20
2019-03-01T19:20:55.735Z,21.37
2019-03-01T19:23:25.916Z,21.37
2019-03-01T19:25:57.820Z,22.17
2019-03-01T19:28:27.684Z,19.77
2019-03-01T19:30:57.724Z,21.60
2019-03-01T19:33:27.609Z,24.37
2019-03-01T19:36:00.642Z,24.23
2019-03-01T19:38:29.044Z,29.80
2019-03-01T19:41:00.071Z,28.67
2019-03-01T19:43:30.013Z,30.10
2019-03-01T19:45:59.863Z,28.33
2019-03-01T19:48:29.736Z,25.77
2019-03-01T19:51:01.836Z,29.10
2019-03-01T19:53:31.244Z,31.47
2019-03-01T19:56:01.111Z,32.10
2019-03-01T19:58:30.981Z,30.47
2019-03-01T20:01:01.988Z,30.23
2019-03-01T20:03:31.941Z,31.20
2019-03-01T20:06:04.486Z,33.23
2019-03-01T20:08:33.363Z,36.17
2019-03-01T20:11:03.209Z,33.80
2019-03-01T20:13:33.087Z,35.00
2019-03-01T20:16:03.012Z,37.27
2019-03-01T20:18:32.960Z,40.37
2019-03-01T20:21:05.747Z,38.70
2019-03-01T20:23:35.431Z,42.27
2019-03-01T20:26:05.370Z,38.30
2019-03-01T20:28:35.225Z,41.07
2019-03-01T20:31:05.793Z,39.23
2019-03-01T20:33:35.808Z,42.03
2019-03-01T20:36:05.767Z,42.10
2019-03-01T20:38:49.508Z,40.90
2019-03-01T20:41:19.458Z,50.63
2019-03-01T20:43:49.472Z,47.80
2019-03-01T20:46:19.454Z,48.50
2019-03-01T20:48:49.319Z,49.60
2019-03-01T20:51:19.239Z,55.67
2019-03-01T20:53:50.520Z,52.47
2019-03-01T20:56:20.655Z,55.20
2019-03-01T20:58:50.637Z,56.63
2019-03-01T21:01:20.532Z,61.67
2019-03-01T21:03:50.485Z,58.47
2019-03-01T21:06:20.415Z,59.67
2019-03-01T21:08:50.302Z,61.63
2019-03-01T21:11:21.786Z,63.17
2019-03-01T21:13:51.787Z,65.83
2019-03-01T21:16:21.668Z,64.30
2019-03-01T21:18:51.604Z,64.73
2019-03-01T21:21:21.541Z,63.00
2019-03-01T21:23:51.860Z,64.80
2019-03-01T21:26:23.941Z,59.67
2019-03-01T21:28:53.419Z,58.90
2019-03-01T21:31:23.348Z,63.27
2019-03-01T21:33:53.283Z,59.53
2019-03-01T21:36:26.157Z,58.57
2019-03-01T21:38:54.710Z,58.70
2019-03-01T21:41:26.560Z,58.70
2019-03-01T21:43:56.127Z,57.37
2019-03-01T21:46:25.995Z,60.57
2019-03-01T21:48:56.898Z,61.07
2019-03-01T21:51:27.426Z,54.53
2019-03-01T21:53:57.357Z,57.73
2019-03-01T21:56:27.314Z,57.50
2019-03-01T21:58:57.234Z,58.77
2019-03-01T22:01:27.137Z,55.90
2019-03-01T22:03:59.272Z,57.90
2019-03-01T22:06:28.627Z,60.23
2019-03-01T22:08:58.508Z,56.90
2019-03-01T22:11:28.435Z,62.23
2019-03-01T22:13:59.193Z,62.67
2019-03-01T22:16:29.133Z,64.60
2019-03-01T22:19:00.012Z,61.73
2019-03-01T22:21:29.969Z,65.00
2019-03-01T22:23:59.909Z,62.53
2019-03-01T22:26:29.870Z,64.43
2019-03-01T22:28:59.796Z,64.47
2019-03-01T22:31:32.557Z,65.83
2019-03-01T22:34:01.322Z,67.93
2019-03-01T22:36:31.274Z,69.77
2019-03-01T22:39:01.138Z,65.70
2019-03-01T22:41:35.594Z,66.63
2019-03-01T22:44:04.156Z,69.30
2019-03-01T22:46:34.106Z,68.57
2019-03-01T22:49:04.042Z,69.57
2019-03-01T22:51:33.977Z,71.00
2019-03-01T22:54:03.848Z,71.90
2019-03-01T22:56:33.729Z,71.10
2019-03-01T22:59:03.596Z,71.63
2019-03-01T23:01:35.362Z,71.17
2019-03-01T23:04:05.632Z,68.50
2019-03-01T23:06:35.568Z,67.00
2019-03-01T23:09:10.723Z,62.07
2019-03-01T23:11:41.865Z,62.73
2019-03-01T23:14:11.797Z,64.73
2019-03-01T23:16:41.810Z,62.97
2019-03-01T23:19:12.676Z,60.07
2019-03-01T23:21:43.480Z,60.07
2019-03-01T23:24:13.401Z,63.30
2019-03-01T23:26:43.269Z,61.87
2019-03-01T23:29:15.689Z,67.07
2019-03-01T23:31:44.696Z,68.07
2019-03-01T23:34:14.555Z,63.43
2019-03-01T23:36:44.502Z,63.17
2019-03-01T23:39:14.430Z,73.77
2019-03-01T23:41:46.380Z,66.10
2019-03-01T23:44:16.578Z,69.83
2019-03-01T23:46:46.520Z,67.70
2019-03-01T23:49:16.395Z,70.20
2019-03-01T23:51:47.288Z,70.93
2019-03-01T23:54:17.228Z,70.50
2019-03-01T23:56:47.213Z,67.67
2019-03-01T23:59:17.213Z,74.40
